Bookmark and Share
Track history (hours):
 

Pure Adrenalin

Last reported at 2014-Apr-24 10:28 UTC. Time now 2014-Apr-24 10:58 UTC.
Position S 12°28' E 130°51'.

Length 21 m.

Type: Ship. MMSI: 503642100.

NotesDate/timePositionNaut miles runAvg speedWind from/ knotsBaromVisibWave heightAir tempDewpointWater temp
2014-Apr-24 10:28S 12°28' E 130°51'0 0.0
2014-Apr-24 08:22S 12°28' E 130°51'4 1.9
2014-Apr-24 06:33S 12°30' E 130°54'1 0.8
2014-Apr-24 05:33S 12°30' E 130°55'0 0.4
2014-Apr-24 04:28S 12°30' E 130°55'0 0.0
2014-Apr-24 03:31S 12°30' E 130°55'5 1.1
2014-Apr-23 23:24S 12°28' E 130°51'4 5.1
2014-Apr-23 22:32S 12°30' E 130°55'3 3.4
2014-Apr-23 21:33S 12°29' E 130°52'1 0.4
2014-Apr-23 19:06S 12°28' E 130°51'0 0.0
2014-Apr-23 11:18S 12°28' E 130°51'0 0.0
2014-Apr-23 10:24S 12°28' E 130°51'0 0.0
2014-Apr-23 09:33S 12°28' E 130°51'0 0.0
2014-Apr-23 08:24S 12°28' E 130°51'0 0.1
2014-Apr-23 07:15S 12°28' E 130°51'4 5.2
2014-Apr-23 06:29S 12°30' E 130°54'4 0.7
2014-Apr-23 00:31S 12°28' E 130°51'4 4.5
2014-Apr-22 23:33S 12°31' E 130°55'0 0.5
2014-Apr-22 22:33S 12°30' E 130°54'4 3.7
2014-Apr-22 21:30S 12°28' E 130°51'0 0.0
2014-Apr-22 20:27S 12°28' E 130°51'0 0.0
2014-Apr-22 19:30S 12°28' E 130°51'0 0.0
2014-Apr-22 18:24S 12°28' E 130°51'0 0.0
2014-Apr-22 15:30S 12°28' E 130°51'0 0.0
2014-Apr-22 12:18S 12°28' E 130°51'4 0.4
2014-Apr-22 01:33S 12°30' E 130°54'0 0.5
2014-Apr-22 00:33S 12°30' E 130°54'1 0.8
2014-Apr-21 23:33S 12°30' E 130°55'1 0.5
2014-Apr-21 22:28S 12°30' E 130°54'4 3.8
2014-Apr-21 21:32S 12°28' E 130°51'0 0.3
2014-Apr-21 20:23S 12°28' E 130°51'0 0.0
2014-Apr-21 19:32S 12°28' E 130°51'0 0.0
2014-Apr-21 18:29S 12°28' E 130°51'0 0.0
2014-Apr-21 17:26S 12°28' E 130°51'0 0.0
2014-Apr-21 16:26S 12°28' E 130°51'0 0.0
2014-Apr-21 08:24S 12°28' E 130°51'0 0.0
2014-Apr-21 07:17S 12°28' E 130°51'0 0.0
2014-Apr-21 06:29S 12°28' E 130°51'0 0.0
2014-Apr-21 03:11S 12°28' E 130°51'0 0.0
2014-Apr-21 01:28S 12°28' E 130°51'4 4.0
2014-Apr-21 00:32S 12°30' E 130°54'0 0.2
2014-Apr-20 23:33S 12°31' E 130°54'1 0.6
2014-Apr-20 22:33S 12°30' E 130°55'4 2.1
2014-Apr-20 20:24S 12°28' E 130°51'0 0.0
2014-Apr-20 19:33S 12°28' E 130°51'0 0.0
2014-Apr-20 18:33S 12°28' E 130°51'0 0.0
2014-Apr-20 17:33S 12°28' E 130°51'0 0.0
2014-Apr-20 16:21S 12°28' E 130°51'0 0.0
2014-Apr-20 15:27S 12°28' E 130°51'0 0.0
2014-Apr-20 13:21S 12°28' E 130°51'0 0.0
2014-Apr-20 06:33S 12°28' E 130°51'0 0.0
2014-Apr-20 05:09S 12°28' E 130°51'1 1.1
2014-Apr-20 04:27S 12°28' E 130°51'1 0.2
2014-Apr-20 01:22S 12°28' E 130°51'5 5.7
2014-Apr-20 00:33S 12°30' E 130°55'1 0.6
2014-Apr-19 23:33S 12°31' E 130°54'0 0.5
2014-Apr-19 22:33S 12°31' E 130°55'4 3.6
2014-Apr-19 21:33S 12°29' E 130°52'1 0.1
2014-Apr-19 04:24S 12°28' E 130°51'3 4.0
2014-Apr-19 03:32S 12°30' E 130°54'1 0.6
2014-Apr-19 02:33S 12°30' E 130°53'1 1.0
2014-Apr-19 01:33S 12°30' E 130°54'0 0.4
2014-Apr-19 00:33S 12°30' E 130°54'0 0.2
2014-Apr-18 23:33S 12°30' E 130°55'0 0.2
2014-Apr-18 22:33S 12°30' E 130°54'4 3.5
2014-Apr-18 21:22S 12°28' E 130°51'0 0.0
2014-Apr-18 20:07S 12°28' E 130°51'0 0.0
2014-Apr-18 19:28S 12°28' E 130°51'0 0.0
2014-Apr-18 18:28S 12°28' E 130°51'0 0.0
2014-Apr-18 17:31S 12°28' E 130°51'0 0.0
2014-Apr-18 16:31S 12°28' E 130°51'0 0.0
2014-Apr-18 15:28S 12°28' E 130°51'0 0.0
2014-Apr-18 14:31S 12°28' E 130°51'0 0.0
2014-Apr-18 12:04S 12°28' E 130°51'0 0.0
2014-Apr-18 11:31S 12°28' E 130°51'0 0.0
2014-Apr-18 10:28S 12°28' E 130°51'0 0.0
2014-Apr-18 09:16S 12°28' E 130°51'0 0.0
2014-Apr-18 08:31S 12°28' E 130°51'0 0.0
2014-Apr-18 07:28S 12°28' E 130°51'0 0.0
2014-Apr-18 06:04S 12°28' E 130°51'0 0.0
2014-Apr-18 05:22S 12°28' E 130°51'2 2.0
2014-Apr-18 04:31S 12°29' E 130°52'3 2.9
2014-Apr-18 03:33S 12°30' E 130°55'0 0.4
2014-Apr-18 02:33S 12°31' E 130°54'15 3.5
2014-Apr-17 22:17S 12°17' E 130°47'1114.9
2014-Apr-17 21:32S 12°28' E 130°51'0 0.1
2014-Apr-17 20:31S 12°28' E 130°51'0 0.0
2014-Apr-17 19:13S 12°28' E 130°51'0 0.0
2014-Apr-17 18:28S 12°28' E 130°51'0 0.0
2014-Apr-17 17:25S 12°28' E 130°51'0 0.0
2014-Apr-17 16:31S 12°28' E 130°51'0 0.0
2014-Apr-17 15:25S 12°28' E 130°51'0 0.0
2014-Apr-17 14:31S 12°28' E 130°51'0 0.0
2014-Apr-17 06:31S 12°28' E 130°51'0 0.0
2014-Apr-17 05:31S 12°28' E 130°51'0 0.0
2014-Apr-17 04:25S 12°28' E 130°51'0 0.0
2014-Apr-17 03:31S 12°28' E 130°51'0 0.0
2014-Apr-17 02:31S 12°28' E 130°51'4 4.0
2014-Apr-17 01:33S 12°31' E 130°54'0 0.1
2014-Apr-17 00:33S 12°30' E 130°54'0 0.2
2014-Apr-16 23:33S 12°30' E 130°54'0 0.2
2014-Apr-16 22:31S 12°30' E 130°54'1 1.3
2014-Apr-16 21:33S 12°29' E 130°55'2 2.4
2014-Apr-16 20:33S 12°29' E 130°52'2 1.7
2014-Apr-16 19:31S 12°28' E 130°51'0 0.0
2014-Apr-16 18:28S 12°28' E 130°51'0 0.0
2014-Apr-16 17:31S 12°28' E 130°51'0 0.0
2014-Apr-16 16:28S 12°28' E 130°51'0 0.0
2014-Apr-16 15:25S 12°28' E 130°51'0 0.0
2014-Apr-16 14:31S 12°28' E 130°51'0 0.0
2014-Apr-16 13:28S 12°28' E 130°51'0 0.0
2014-Apr-16 11:28S 12°28' E 130°51'0 0.0
2014-Apr-16 10:16S 12°28' E 130°51'0 0.0
2014-Apr-16 05:28S 12°28' E 130°51'0 0.0
2014-Apr-16 04:25S 12°28' E 130°51'0 0.0
2014-Apr-16 03:31S 12°28' E 130°51'5 4.7
2014-Apr-16 02:32S 12°30' E 130°55'1 0.8
2014-Apr-16 01:33S 12°31' E 130°54'0 0.2
2014-Apr-16 00:33S 12°30' E 130°54'0 0.3
2014-Apr-15 23:33S 12°30' E 130°55'1 0.7
2014-Apr-15 22:33S 12°30' E 130°54'3 2.9
2014-Apr-15 21:34S 12°29' E 130°51'1 0.4
2014-Apr-15 19:29S 12°28' E 130°51'0 0.0
2014-Apr-15 18:11S 12°28' E 130°51'0 0.0
2014-Apr-15 17:32S 12°28' E 130°51'0 0.0
2014-Apr-15 15:32S 12°28' E 130°51'0 0.0
2014-Apr-15 14:32S 12°28' E 130°51'0 0.0
2014-Apr-15 12:29S 12°28' E 130°51'0 0.0
2014-Apr-15 10:32S 12°28' E 130°51'0 0.0
2014-Apr-15 08:32S 12°28' E 130°51'0 0.0
2014-Apr-15 07:32S 12°28' E 130°51'4 2.0
2014-Apr-15 05:30S 12°30' E 130°54'0 0.2
2014-Apr-15 03:33S 12°31' E 130°55'0 0.1
2014-Apr-15 02:33S 12°30' E 130°55'1 0.5
2014-Apr-15 00:34S 12°30' E 130°54'1110.6
2014-Apr-14 23:34S 12°24' E 130°45'3 2.9
2014-Apr-14 22:34S 12°22' E 130°44'0 0.1
2014-Apr-14 21:34S 12°21' E 130°44'10 3.2
2014-Apr-14 18:31S 12°28' E 130°51'0 0.0
2014-Apr-14 17:31S 12°28' E 130°51'0 0.0
2014-Apr-14 15:31S 12°28' E 130°51'0 0.0
2014-Apr-14 11:31S 12°28' E 130°51'  

Dump ship's entire track history

sailing weather and tide predictions

Pure Adrenalin — VJD3680 — position and weather